Racecast

Bridget Goddard

Bayfield (CO) · 12 · CO D3A3A · Compare head to head

Athlete rating 130.3 2017 TF season
Best race 130.3 TF
Races 45
Seasons 5 2013 — 2017

RankedNation #2937·CO #110·CO D3A #22·Team #2 ?

Speed rating — all races

Cross Country

XC speed rating

2016 XC 112.1

Bayfield (CO) · Grade 12

Date Meet Event Result Place Rating Difficulty PR/SR Flags
2016-10-21 Confluence Park 5000m 21:40.7 27th · 1st on team 114.7 -0.000 ★CR SR CSR
2016-10-08 Montezuma County Fairgrounds 5000m 23:13.4 2nd · 1st on team 116.0 +0.093 ★CR CSR RSR
2016-09-24 James M. Robb - Colorado River State Park Connected Lakes Section 5000m 22:46.9 65th · 2nd on team 107.2 +0.002 ★CR CSR
2016-09-10 Cattails Golf Course 5000m 22:01.1 40th · 1st on team 113.0 +0.012 SR CSR RSR
2016-09-03 Colorado Mountain College 5000m 25:39.2 29th · 1st on team 110.1 +0.148 ★CR CSR
2016-08-25 Norris Penrose Event Center 5000m 23:21.7 34th · 1st on team 111.6 +0.067 SR CSR RSR

2015 XC 115.4

Bayfield (CO) · Grade 11

Date Meet Event Result Place Rating Difficulty PR/SR Flags
2015-10-23 Pagosa Springs High 5000m 22:11.3 13th · 1st on team 123.2 +0.117 ★CR CSR RSR
2015-09-26 Pagosa Springs High 5000m 22:54.1 14th · 1st on team 120.0 +0.117 CR CSR RSR
2015-09-11 Hillcrest Golf Club 5000m 23:07.9 25th · 1st on team 111.4 +0.040 ★CR CSR
2015-09-05 Cattails Golf Course 5000m 21:57.5 15th · 1st on team 112.8 +0.012 SR CSR RSR
2015-08-29 Matchett Park 5000m 22:50.8 19th · 1st on team 109.8 +0.016 ★CR SR CSR RSR

2014 XC 106.8

Bayfield (CO) · Grade 10

Date Meet Event Result Place Rating Difficulty PR/SR Flags
2014-09-06 Cattails Golf Course 5000m 23:26 76th · 3rd on team 106.8 +0.012 SR CSR RSR

2013 XC 115.6

Bayfield (CO) · Grade 9

Date Meet Event Result Place Rating Difficulty PR/SR Flags
2013-10-26 Norris Penrose Event Center 5000m 21:42.8 30th · 2nd on team 120.7 +0.067 ★CR R CSR RSR
2013-09-07 Cattails Golf Course 5000m 21:13.5 29th · 2nd on team 118.5 +0.012 ★PR ★CR R SR CSR RSR
2013-08-29 Norris Penrose Event Center 5000m 24:41.3 45th · 3rd on team 107.5 +0.067 PR CR R SR CSR RSR

Track & Field

TF speed rating

2017 TF 124.3

Bayfield (CO) · Grade 12

Date Meet Event Result Place Rating Difficulty PR/SR Flags
2017-05-06 Doherty Spartan Invitational 800m 2:29.52 11th · 1st on team 126.4 -0.004
2017-05-02 High Altitude Challenge 200m 29.11 9th · 2nd on team +0.020 ★PR SR
2017-05-02 High Altitude Challenge 800m 2:28.61 1st · 1st on team 130.3 +0.020 ★PR ★R SR RSR
2017-04-08 John Tate Challenge Cup 200m 29.39 17th · 3rd on team -0.011 PR SR
2017-04-08 John Tate Challenge Cup 800m 2:33.23 2nd · 1st on team 122.4 -0.011
2017-03-17 Bobcat Quad 800m 2:34.24 2nd · 1st on team 122.4 -0.002
2017-03-17 Bobcat Quad 400m 1:04.87 2nd · 1st on team -0.002 ★PR SR
2017-03-11 Piedra Vista Invitational 1600m 5:57.25 4th · 1st on team 118.3 -0.005 ★PR SR
2017-03-11 Piedra Vista Invitational 200m 29.55 10th · 2nd on team -0.005 PR SR
2017-02-11 Western State HS Indoor Open 800m 2:32.97 4th · 2nd on team 126.1 +0.003 PR R SR RSR

2016 TF 120.4

Bayfield (CO) · Grade 11

Date Meet Event Result Place Rating Difficulty PR/SR Flags
2016-05-07 Terry Allen Invitational 800m 2:33.91 3rd · 1st on team 125.1 +0.013 PR R SR RSR
2016-05-06 The Pueblo Twilight 800m 2:36.28 15th · 1st on team 120.0 -0.011
2016-04-27 Pine River Invitational 400m 1:05.25 2nd · 1st on team +0.019 PR SR
2016-04-22 Aztec B&B Invitational 1600m 6:11.04 4th · 1st on team 114.8 +0.001 SR RSR
2016-04-22 Aztec B&B Invitational 800m 2:35.54 6th · 1st on team 121.7 +0.001 PR SR RSR
2016-03-25 Montezuma-Cortez Invitational 400m 1:06.71 3rd · 1st on team +0.015 PR SR

2015 TF 119.7

Bayfield (CO) · Grade 10

Date Meet Event Result Place Rating Difficulty PR/SR Flags
2015-05-09 IML/SPL Invitational 800m 2:39.62 4th · 2nd on team 122.1 +0.028
2015-05-02 Terry Allen Invitational 800m 2:41.41 4th · 1st on team 119.1 +0.013
2015-05-02 Terry Allen Invitational 1600m 6:10.67 10th · 1st on team 117.1 +0.013
2015-04-24 Aztec Invitational 800m 2:36.27 4th · 2nd on team 123.7 +0.019 PR R SR RSR
2015-04-18 Pine River Invitational 800m 2:39.48 2nd · 2nd on team 121.7 +0.019 PR R SR RSR
2015-04-14 Ron Keller Invitational 800m 2:39.92 4th · 1st on team 120.9 +0.019 PR R SR RSR
2015-04-14 Ron Keller Invitational 200m 30 7th · 2nd on team +0.019
2015-04-11 Abel Velasquez Invitational 200m 30.13 6th · 3rd on team +0.010
2015-04-11 Abel Velasquez Invitational 1600m 6:01.06 2nd · 1st on team 119.6 +0.010 PR SR
2015-04-04 Bayfield Invitational 800m 2:43.57 3rd · 2nd on team 118.0 +0.019 PR SR
2015-04-04 Bayfield Invitational 1600m 6:06.33 1st · 1st on team 119.0 +0.019
2015-03-21 Farmington Invitational 1600m 6:01.21 3rd · 1st on team 120.7 +0.019 PR SR RSR
2015-03-21 Farmington Invitational 200m 29.96 8th · 2nd on team +0.019 PR SR
2015-03-14 Piedra Vista Invitational 3200m 13:17.72 5th · 1st on team 115.0 -0.005 ★PR SR RSR